createdAt,value
2023-01-27T00:02:17.425Z,1.43
2023-01-27T00:06:19.050Z,1.38
2023-01-27T00:10:20.924Z,1.42
2023-01-27T00:14:23.301Z,1.38
2023-01-27T00:18:25.679Z,1.39
2023-01-27T00:22:45.979Z,1.42
2023-01-27T00:26:47.490Z,1.42
2023-01-27T00:30:52.919Z,1.36
2023-01-27T00:34:54.537Z,1.39
2023-01-27T00:38:56.612Z,1.39
2023-01-27T00:42:58.149Z,1.47
2023-01-27T00:47:00.035Z,1.47
2023-01-27T00:51:01.952Z,1.47
2023-01-27T00:55:03.638Z,1.47
2023-01-27T00:59:05.360Z,1.44
2023-01-27T01:03:06.970Z,1.47
2023-01-27T01:07:08.505Z,1.47
2023-01-27T01:11:13.815Z,1.46
2023-01-27T01:15:15.721Z,1.49
2023-01-27T01:19:17.318Z,1.50
2023-01-27T01:23:18.824Z,1.52
2023-01-27T01:27:20.457Z,1.47
2023-01-27T01:31:22.169Z,1.49
2023-01-27T01:35:27.819Z,1.50
2023-01-27T01:39:30.483Z,1.52
2023-01-27T01:43:32.105Z,1.50
2023-01-27T01:47:33.654Z,1.49
2023-01-27T01:51:39.942Z,1.44
2023-01-27T01:55:41.920Z,1.47
2023-01-27T02:00:01.390Z,1.46
2023-01-27T02:04:07.711Z,1.50
2023-01-27T02:08:21.262Z,1.46
2023-01-27T02:12:23.139Z,1.44
2023-01-27T02:16:25.038Z,1.44
2023-01-27T02:20:36.770Z,1.42
2023-01-27T02:24:47.360Z,1.44
2023-01-27T02:29:00.770Z,1.44
2023-01-27T02:33:02.602Z,1.47
2023-01-27T02:37:09.353Z,1.49
2023-01-27T02:41:19.896Z,1.47
2023-01-27T02:45:21.856Z,1.50
2023-01-27T02:49:23.614Z,1.49
2023-01-27T02:53:25.448Z,1.47
2023-01-27T02:57:27.061Z,1.44
2023-01-27T03:01:52.177Z,1.43
2023-01-27T03:05:54.605Z,1.44
2023-01-27T03:09:57.215Z,1.47
2023-01-27T03:13:58.751Z,1.47
2023-01-27T03:18:13.432Z,1.46
2023-01-27T03:22:15.287Z,1.46
2023-01-27T03:26:17.797Z,1.44
2023-01-27T03:30:23.644Z,1.47
2023-01-27T03:34:38.463Z,1.47
2023-01-27T03:39:05.373Z,1.43
2023-01-27T03:43:26.158Z,1.47
2023-01-27T03:47:27.728Z,1.47
2023-01-27T03:51:29.373Z,1.49
2023-01-27T03:55:31.594Z,1.50
2023-01-27T03:59:33.297Z,1.52
2023-01-27T04:03:54.824Z,1.53
2023-01-27T04:07:56.379Z,1.57
2023-01-27T04:12:00.634Z,1.60
2023-01-27T04:16:02.357Z,1.61
2023-01-27T04:20:04.381Z,1.61
2023-01-27T04:24:16.649Z,1.61
2023-01-27T04:28:29.167Z,1.61
2023-01-27T04:32:39.029Z,1.63
2023-01-27T04:36:41.570Z,1.63
2023-01-27T04:40:43.435Z,1.63
2023-01-27T04:44:45.073Z,1.64
2023-01-27T04:48:46.664Z,1.64
2023-01-27T04:52:48.274Z,1.61
2023-01-27T04:56:59.885Z,1.61
2023-01-27T05:01:01.492Z,1.65
2023-01-27T05:05:04.715Z,1.64
2023-01-27T05:09:06.257Z,1.65
2023-01-27T05:13:07.797Z,1.64
2023-01-27T05:17:09.457Z,1.67
2023-01-27T05:21:17.091Z,1.64
2023-01-27T05:25:18.701Z,1.63
2023-01-27T05:29:20.378Z,1.61
2023-01-27T05:33:21.949Z,1.64
2023-01-27T05:37:23.482Z,1.64
2023-01-27T05:41:25.453Z,1.63
2023-01-27T05:45:27.018Z,1.63
2023-01-27T05:49:28.596Z,1.64
2023-01-27T05:53:30.520Z,1.65
2023-01-27T05:57:32.064Z,1.67
2023-01-27T06:01:34.936Z,1.68
2023-01-27T06:05:36.553Z,1.70
2023-01-27T06:09:38.814Z,1.72
2023-01-27T06:13:40.640Z,1.71
2023-01-27T06:17:42.219Z,1.71
2023-01-27T06:21:43.767Z,1.72
2023-01-27T06:25:47.704Z,1.74
2023-01-27T06:29:49.287Z,1.75
2023-01-27T06:33:51.306Z,1.79
2023-01-27T06:37:53.022Z,1.82
2023-01-27T06:41:54.631Z,1.82
2023-01-27T06:45:59.460Z,1.82
2023-01-27T06:50:01.319Z,1.85
2023-01-27T06:54:03.041Z,1.86
2023-01-27T06:58:04.610Z,1.86
2023-01-27T07:02:06.330Z,1.85
2023-01-27T07:06:08.614Z,1.88
2023-01-27T07:10:10.704Z,1.88
2023-01-27T07:14:12.243Z,1.89
2023-01-27T07:18:14.267Z,1.88
2023-01-27T07:22:16.031Z,1.89
2023-01-27T07:26:24.882Z,1.90
2023-01-27T07:30:28.426Z,1.92
2023-01-27T07:34:29.985Z,1.95
2023-01-27T07:38:31.688Z,1.93
2023-01-27T07:42:33.304Z,1.95
2023-01-27T07:46:34.996Z,2.00
2023-01-27T07:50:36.655Z,2.01
2023-01-27T07:54:38.184Z,2.04
2023-01-27T07:58:40.085Z,2.07
2023-01-27T08:02:41.629Z,2.09
2023-01-27T08:06:43.164Z,2.12
2023-01-27T08:10:49.175Z,2.12
2023-01-27T08:14:50.764Z,2.18
2023-01-27T08:18:53.819Z,2.19
2023-01-27T08:22:55.788Z,2.22
2023-01-27T08:26:57.433Z,2.22
2023-01-27T08:31:09.452Z,2.20
2023-01-27T08:35:11.049Z,2.23
2023-01-27T08:39:12.649Z,2.26
2023-01-27T08:43:16.579Z,2.29
2023-01-27T08:47:18.169Z,2.30
2023-01-27T08:51:19.826Z,2.33
2023-01-27T08:55:21.559Z,2.36
2023-01-27T08:59:23.161Z,2.38
2023-01-27T09:03:26.003Z,2.44
2023-01-27T09:07:27.869Z,2.47
2023-01-27T09:11:29.570Z,2.50
2023-01-27T09:15:31.637Z,2.56
2023-01-27T09:19:33.249Z,2.62
2023-01-27T09:23:34.914Z,2.66
2023-01-27T09:27:39.535Z,2.68
2023-01-27T09:31:41.714Z,2.73
2023-01-27T09:35:52.639Z,2.83
2023-01-27T09:39:58.310Z,2.87
2023-01-27T09:44:02.856Z,2.87
2023-01-27T09:48:41.544Z,2.86
2023-01-27T09:53:05.256Z,2.87
2023-01-27T09:57:22.113Z,2.89
2023-01-27T10:01:46.631Z,2.86
2023-01-27T10:06:19.787Z,2.87
2023-01-27T10:10:33.033Z,2.89
2023-01-27T10:14:55.585Z,2.90
2023-01-27T10:19:06.295Z,2.90
2023-01-27T10:23:12.445Z,2.94
2023-01-27T10:27:20.737Z,2.99
2023-01-27T10:31:29.630Z,3.01
2023-01-27T10:35:47.987Z,3.10
2023-01-27T10:40:04.620Z,3.19
2023-01-27T10:44:44.725Z,3.25
2023-01-27T10:48:52.339Z,3.26
2023-01-27T10:52:57.783Z,3.28
2023-01-27T10:57:06.017Z,3.30
2023-01-27T11:01:20.742Z,3.35
2023-01-27T11:05:46.017Z,3.52
2023-01-27T11:10:01.026Z,3.59
2023-01-27T11:14:10.731Z,3.67
2023-01-27T11:18:16.069Z,3.70
2023-01-27T11:22:22.641Z,3.74
2023-01-27T11:26:30.281Z,3.80
2023-01-27T11:30:42.682Z,3.86
2023-01-27T11:34:54.175Z,3.90
2023-01-27T11:38:58.022Z,3.88
2023-01-27T11:43:00.703Z,3.96
2023-01-27T11:47:04.284Z,3.98
2023-01-27T11:51:06.351Z,3.96
2023-01-27T11:55:15.874Z,3.95
2023-01-27T11:59:25.909Z,3.96
2023-01-27T12:03:33.114Z,3.95
2023-01-27T12:07:45.517Z,3.92
2023-01-27T12:11:47.114Z,3.90
2023-01-27T12:15:58.627Z,3.89
2023-01-27T12:20:19.653Z,3.88
2023-01-27T12:24:27.544Z,3.93
2023-01-27T12:28:38.551Z,3.92
2023-01-27T12:32:42.930Z,3.84
2023-01-27T12:36:44.810Z,3.84
2023-01-27T12:40:48.087Z,3.82
2023-01-27T12:44:49.960Z,3.88
2023-01-27T12:48:54.640Z,3.90
2023-01-27T12:53:13.918Z,3.93
2023-01-27T12:57:19.611Z,3.93
2023-01-27T13:01:41.157Z,3.95
2023-01-27T13:05:43.765Z,3.99
2023-01-27T13:10:06.891Z,3.99
2023-01-27T13:14:16.999Z,4.00
2023-01-27T13:18:21.908Z,3.93
2023-01-27T13:22:26.619Z,3.95
2023-01-27T13:26:34.823Z,3.98
2023-01-27T13:30:40.364Z,3.98
2023-01-27T13:35:06.688Z,4.04
2023-01-27T13:39:23.475Z,4.10
2023-01-27T13:43:32.644Z,4.14
2023-01-27T13:47:57.242Z,4.14
2023-01-27T13:51:58.901Z,4.21
2023-01-27T13:56:19.290Z,4.24
2023-01-27T14:00:43.497Z,4.24
2023-01-27T14:05:13.093Z,4.21
2023-01-27T14:09:22.102Z,4.17
2023-01-27T14:13:48.559Z,4.18
2023-01-27T14:18:11.944Z,4.20
2023-01-27T14:22:22.229Z,4.24
2023-01-27T14:26:48.732Z,4.24
2023-01-27T14:31:14.677Z,4.20
2023-01-27T14:35:51.285Z,4.11
2023-01-27T14:40:31.900Z,4.07
2023-01-27T14:45:03.737Z,4.07
2023-01-27T14:49:12.342Z,4.14
2023-01-27T14:53:33.659Z,4.18
2023-01-27T14:57:48.181Z,4.20
2023-01-27T15:02:04.536Z,4.21
2023-01-27T15:06:09.861Z,4.20
2023-01-27T15:10:22.331Z,4.20
2023-01-27T15:14:36.317Z,4.18
2023-01-27T15:18:46.981Z,4.18
2023-01-27T15:23:07.079Z,4.16
2023-01-27T15:27:09.964Z,4.17
2023-01-27T15:31:14.747Z,4.18
2023-01-27T15:35:23.446Z,4.17
2023-01-27T15:39:35.692Z,4.17
2023-01-27T15:44:03.731Z,4.14
2023-01-27T15:48:15.088Z,4.14
2023-01-27T15:52:28.769Z,4.13
2023-01-27T15:56:46.868Z,4.13
2023-01-27T16:00:54.139Z,4.08
2023-01-27T16:05:05.310Z,4.07
2023-01-27T16:09:08.477Z,4.07
2023-01-27T16:13:25.500Z,4.06
2023-01-27T16:17:32.715Z,4.07
2023-01-27T16:21:49.472Z,4.06
2023-01-27T16:26:00.546Z,4.06
2023-01-27T16:30:20.844Z,4.06
2023-01-27T16:34:29.023Z,4.04
2023-01-27T16:38:39.874Z,4.04
2023-01-27T16:42:54.411Z,4.02
2023-01-27T16:47:05.049Z,4.02
2023-01-27T16:51:19.977Z,4.04
2023-01-27T16:55:24.652Z,4.02
2023-01-27T16:59:28.159Z,4.04
2023-01-27T17:03:38.809Z,4.02
2023-01-27T17:07:40.459Z,4.02
2023-01-27T17:11:42.023Z,3.99
2023-01-27T17:15:44.425Z,4.02
2023-01-27T17:19:48.345Z,4.00
2023-01-27T17:23:50.154Z,4.02
2023-01-27T17:27:52.104Z,4.02
2023-01-27T17:31:53.809Z,4.04
2023-01-27T17:35:58.831Z,4.04
2023-01-27T17:40:05.597Z,4.02
2023-01-27T17:44:14.424Z,4.00
2023-01-27T17:48:16.166Z,4.02
2023-01-27T17:52:21.644Z,4.02
2023-01-27T17:56:32.584Z,4.02
2023-01-27T18:00:38.413Z,4.00
2023-01-27T18:04:42.155Z,4.02
2023-01-27T18:08:55.300Z,4.00
2023-01-27T18:13:10.935Z,4.02
2023-01-27T18:17:24.423Z,4.02
2023-01-27T18:21:27.480Z,4.04
2023-01-27T18:25:29.250Z,4.06
2023-01-27T18:29:36.486Z,4.06
2023-01-27T18:33:38.428Z,4.06
2023-01-27T18:37:51.793Z,4.04
2023-01-27T18:41:54.322Z,4.04
2023-01-27T18:45:55.933Z,4.04
2023-01-27T18:50:07.181Z,4.02
2023-01-27T18:54:12.005Z,4.02
2023-01-27T18:58:13.579Z,4.02
2023-01-27T19:02:16.009Z,4.04
2023-01-27T19:06:18.204Z,4.02
2023-01-27T19:10:25.392Z,4.06
2023-01-27T19:14:26.899Z,4.02
2023-01-27T19:18:32.857Z,4.02
2023-01-27T19:22:35.042Z,4.04
2023-01-27T19:26:36.784Z,4.04
2023-01-27T19:30:39.436Z,4.06
2023-01-27T19:34:41.272Z,4.06
2023-01-27T19:38:42.844Z,4.04
2023-01-27T19:42:44.486Z,4.06
2023-01-27T19:46:46.098Z,4.07
2023-01-27T19:50:48.929Z,4.04
2023-01-27T19:54:50.621Z,4.06
2023-01-27T19:58:53.544Z,4.06
2023-01-27T20:02:56.421Z,4.06
2023-01-27T20:06:58.051Z,4.04
2023-01-27T20:10:59.769Z,4.02
2023-01-27T20:15:01.573Z,4.04
2023-01-27T20:19:03.254Z,4.06
2023-01-27T20:23:04.989Z,4.04
2023-01-27T20:27:06.629Z,4.06
2023-01-27T20:31:12.742Z,4.06
2023-01-27T20:35:16.414Z,4.06
2023-01-27T20:39:18.279Z,4.07
2023-01-27T20:43:33.705Z,4.06
2023-01-27T20:47:36.726Z,4.06
2023-01-27T20:51:38.349Z,4.07
2023-01-27T20:55:39.913Z,4.04
2023-01-27T20:59:42.029Z,4.04
2023-01-27T21:03:43.975Z,4.02
2023-01-27T21:07:45.557Z,4.04
2023-01-27T21:11:47.156Z,4.04
2023-01-27T21:15:49.706Z,4.04
2023-01-27T21:19:51.257Z,4.04
2023-01-27T21:23:56.556Z,4.04
2023-01-27T21:27:58.134Z,4.04
2023-01-27T21:32:00.573Z,4.04
2023-01-27T21:36:03.178Z,4.04
2023-01-27T21:40:05.163Z,4.02
2023-01-27T21:44:40.657Z,4.02
2023-01-27T21:48:42.322Z,4.04
2023-01-27T21:52:45.917Z,4.06
2023-01-27T21:56:47.569Z,4.02
2023-01-27T22:00:49.232Z,4.00
2023-01-27T22:04:51.038Z,4.02
2023-01-27T22:08:52.721Z,4.04
2023-01-27T22:13:03.862Z,4.04
2023-01-27T22:17:05.517Z,4.02
2023-01-27T22:21:07.199Z,4.04
2023-01-27T22:25:10.559Z,4.00
2023-01-27T22:29:12.315Z,4.00
2023-01-27T22:33:14.641Z,4.00
2023-01-27T22:37:16.437Z,4.02
2023-01-27T22:41:18.076Z,4.06
2023-01-27T22:45:19.949Z,4.04
2023-01-27T22:49:21.502Z,4.00
2023-01-27T22:53:23.629Z,4.00
2023-01-27T22:57:30.073Z,4.02
2023-01-27T23:01:31.765Z,4.02
2023-01-27T23:05:33.897Z,4.02
2023-01-27T23:09:35.455Z,4.00
2023-01-27T23:13:37.039Z,4.00
2023-01-27T23:17:38.676Z,4.00
2023-01-27T23:21:40.232Z,3.99
2023-01-27T23:25:46.786Z,4.00
2023-01-27T23:29:48.327Z,4.00
2023-01-27T23:33:49.909Z,3.99
2023-01-27T23:37:51.501Z,3.99
2023-01-27T23:41:53.029Z,3.99
2023-01-27T23:45:54.924Z,3.98
2023-01-27T23:49:56.593Z,3.98
2023-01-27T23:53:58.179Z,3.98
2023-01-27T23:57:59.712Z,3.98
